• Join FlightAware (Why Join?)
  • Login
  • US Flag 
12:25PM EDT


 

Airport Tracker/Info


-or-


 

Live Flight TrackerFlight Track Log ✈ N75ZM ✈ 12-Aug-2013 ✈ KSCX - KCHA

Flight Track Log - Related Links

Times and Time Zones

All times are in EDT time to prevent confusion due to time zone crossing. See the N75ZM flight status page for this flight to view local times or setup timezone preferences in your user account.

Time Position Orientation Groundspeed Altitude Reporting Facility
EDT Latitude Longitude Course Direction KTS MPH feet Rate Location/Type
05:53PM 36.3600 -84.6758 214° Southwest 120 138 4,300  Level Indianapolis Center
05:54PM 36.3336 -84.6981 214° Southwest 118 136 5,100 720 Climbing Indianapolis Center
05:55PM 36.3006 -84.7086 194° South 119 137 5,800 480 Climbing Indianapolis Center
05:56PM 36.2717 -84.7300 211° Southwest 121 139 6,100 60 Climbing Indianapolis Center
05:57PM 36.2361 -84.7594 214° Southwest 147 169 6,000 -60 Descending Indianapolis Center
05:58PM 36.2011 -84.7875 213° Southwest 150 173 6,000  Level Indianapolis Center
05:59PM 36.1656 -84.8158 213° Southwest 152 175 6,000  Level Indianapolis Center
06:00PM 36.1233 -84.8494 213° Southwest 151 174 6,100  Climbing Indianapolis Center
06:01PM 36.0806 -84.8839 213° Southwest 153 176 6,100 -60 Level Atlanta Center
06:02PM 36.0517 -84.9058 212° Southwest 152 175 6,000  Descending Indianapolis Center
06:04PM 35.9592 -84.9314 193° South 153 176 6,100  Climbing Atlanta Center
06:05PM 35.9194 -84.9439 194° South 153 176 6,100  Level Atlanta Center
06:06PM 35.8775 -84.9561 193° South 153 176 6,100  Level Atlanta Center
06:07PM 35.8378 -84.9661 192° South 153 176 6,100  Level Atlanta Center
06:08PM 35.7939 -84.9808 195° South 153 176 6,100 -60 Level Atlanta Center
06:09PM 35.7564 -84.9906 192° South 153 176 6,000 -60 Descending Atlanta Center
06:10PM 35.7167 -85.0031 194° South 153 176 6,000  Level Atlanta Center
06:11PM 35.6747 -85.0178 196° South 153 176 6,100  Climbing Atlanta Center
06:12PM 35.6331 -85.0300 193° South 148 170 6,100  Level Atlanta Center
06:13PM 35.5911 -85.0425 194° South 148 170 6,100  Level Atlanta Center
06:14PM 35.5492 -85.0547 193° South 148 170 6,100  Level Atlanta Center
06:15PM 35.5075 -85.0669 193° South 153 176 6,100  Level Atlanta Center
06:16PM 35.4636 -85.0639 177° South 153 176 6,100  Level Atlanta Center
06:17PM 35.4219 -85.0581 173° South 158 182 6,100  Level Atlanta Center
06:18PM 35.3761 -85.0500 172° South 163 188 6,100  Level Atlanta Center
06:19PM 35.3325 -85.0419 171° South 163 188 6,100 -300 Level Atlanta Center
06:20PM 35.2867 -85.0361 174° South 163 188 5,600 -540 Descending Atlanta Center